sensor_id;sensor_type;location;lat;lon;timestamp;temperature;humidity
74934;DHT22;63499;53.232;7.492;2023-04-24T00:00:31;11.80;99.90
74934;DHT22;63499;53.232;7.492;2023-04-24T00:02:58;11.70;99.90
74934;DHT22;63499;53.232;7.492;2023-04-24T00:05:24;11.70;99.90
74934;DHT22;63499;53.232;7.492;2023-04-24T00:07:50;11.60;99.90
74934;DHT22;63499;53.232;7.492;2023-04-24T00:10:19;11.60;99.90
74934;DHT22;63499;53.232;7.492;2023-04-24T00:12:45;11.60;99.90
74934;DHT22;63499;53.232;7.492;2023-04-24T00:15:13;11.50;99.90
74934;DHT22;63499;53.232;7.492;2023-04-24T00:17:39;11.50;99.90
74934;DHT22;63499;53.232;7.492;2023-04-24T00:20:05;11.50;99.90
74934;DHT22;63499;53.232;7.492;2023-04-24T00:22:33;11.50;99.90
74934;DHT22;63499;53.232;7.492;2023-04-24T00:24:59;11.50;99.90
74934;DHT22;63499;53.232;7.492;2023-04-24T00:27:25;11.50;99.90
74934;DHT22;63499;53.232;7.492;2023-04-24T00:29:52;11.40;99.90
74934;DHT22;63499;53.232;7.492;2023-04-24T00:32:18;11.30;99.90
74934;DHT22;63499;53.232;7.492;2023-04-24T00:34:44;11.30;99.90
74934;DHT22;63499;53.232;7.492;2023-04-24T00:37:10;11.20;99.90
74934;DHT22;63499;53.232;7.492;2023-04-24T00:39:37;11.10;99.90
74934;DHT22;63499;53.232;7.492;2023-04-24T00:42:03;11.10;99.90
74934;DHT22;63499;53.232;7.492;2023-04-24T00:44:33;11.00;99.90
74934;DHT22;63499;53.232;7.492;2023-04-24T00:47:01;11.00;99.90
74934;DHT22;63499;53.232;7.492;2023-04-24T00:49:27;10.90;99.90
74934;DHT22;63499;53.232;7.492;2023-04-24T00:51:53;10.90;99.90
74934;DHT22;63499;53.232;7.492;2023-04-24T00:54:19;10.80;99.90
74934;DHT22;63499;53.232;7.492;2023-04-24T00:56:46;10.70;99.90
74934;DHT22;63499;53.232;7.492;2023-04-24T00:59:13;10.70;99.90
74934;DHT22;63499;53.232;7.492;2023-04-24T01:01:42;10.70;99.90
74934;DHT22;63499;53.232;7.492;2023-04-24T01:04:11;10.60;99.90
74934;DHT22;63499;53.232;7.492;2023-04-24T01:06:43;10.60;99.90
74934;DHT22;63499;53.232;7.492;2023-04-24T01:09:10;10.60;99.90
74934;DHT22;63499;53.232;7.492;2023-04-24T01:11:38;10.60;99.90
74934;DHT22;63499;53.232;7.492;2023-04-24T01:14:04;10.50;99.90
74934;DHT22;63499;53.232;7.492;2023-04-24T01:16:30;10.50;99.90
74934;DHT22;63499;53.232;7.492;2023-04-24T01:18:57;10.50;99.90
74934;DHT22;63499;53.232;7.492;2023-04-24T01:21:23;10.50;99.90
74934;DHT22;63499;53.232;7.492;2023-04-24T01:23:53;10.50;99.90
74934;DHT22;63499;53.232;7.492;2023-04-24T01:26:21;10.40;99.90
74934;DHT22;63499;53.232;7.492;2023-04-24T01:28:48;10.30;99.90
74934;DHT22;63499;53.232;7.492;2023-04-24T01:31:15;10.20;99.90
74934;DHT22;63499;53.232;7.492;2023-04-24T01:33:42;10.10;99.90
74934;DHT22;63499;53.232;7.492;2023-04-24T01:36:10;10.10;99.90
74934;DHT22;63499;53.232;7.492;2023-04-24T01:38:39;10.20;99.90
74934;DHT22;63499;53.232;7.492;2023-04-24T01:41:05;10.20;99.90
74934;DHT22;63499;53.232;7.492;2023-04-24T01:43:32;10.20;99.90
74934;DHT22;63499;53.232;7.492;2023-04-24T01:45:58;10.10;99.90
74934;DHT22;63499;53.232;7.492;2023-04-24T01:48:25;10.10;99.90
74934;DHT22;63499;53.232;7.492;2023-04-24T01:50:51;10.10;99.90
74934;DHT22;63499;53.232;7.492;2023-04-24T09:03:14;9.90;99.90
74934;DHT22;63499;53.232;7.492;2023-04-24T09:05:44;10.00;99.90
74934;DHT22;63499;53.232;7.492;2023-04-24T09:08:13;10.00;99.90
74934;DHT22;63499;53.232;7.492;2023-04-24T09:10:39;10.00;99.90
74934;DHT22;63499;53.232;7.492;2023-04-24T09:13:06;10.00;99.90
74934;DHT22;63499;53.232;7.492;2023-04-24T09:15:34;10.10;99.90
74934;DHT22;63499;53.232;7.492;2023-04-24T09:18:01;10.10;99.90
74934;DHT22;63499;53.232;7.492;2023-04-24T09:20:27;10.20;99.90
74934;DHT22;63499;53.232;7.492;2023-04-24T09:22:54;10.30;99.90
74934;DHT22;63499;53.232;7.492;2023-04-24T09:25:21;10.30;99.90
74934;DHT22;63499;53.232;7.492;2023-04-24T09:27:53;10.40;99.90
74934;DHT22;63499;53.232;7.492;2023-04-24T09:30:22;10.50;99.90
74934;DHT22;63499;53.232;7.492;2023-04-24T09:32:51;10.50;99.90
74934;DHT22;63499;53.232;7.492;2023-04-24T09:35:34;10.50;99.90
74934;DHT22;63499;53.232;7.492;2023-04-24T09:38:00;10.50;99.90
74934;DHT22;63499;53.232;7.492;2023-04-24T09:40:26;10.40;99.90
74934;DHT22;63499;53.232;7.492;2023-04-24T09:42:53;10.40;99.90
74934;DHT22;63499;53.232;7.492;2023-04-24T09:45:19;10.40;99.90
74934;DHT22;63499;53.232;7.492;2023-04-24T09:47:46;10.30;99.90
74934;DHT22;63499;53.232;7.492;2023-04-24T09:50:16;10.40;99.90
74934;DHT22;63499;53.232;7.492;2023-04-24T09:52:46;10.30;99.90
74934;DHT22;63499;53.232;7.492;2023-04-24T09:55:20;10.40;99.90
74934;DHT22;63499;53.232;7.492;2023-04-24T09:57:50;10.40;99.90
74934;DHT22;63499;53.232;7.492;2023-04-24T10:00:23;10.50;99.90
74934;DHT22;63499;53.232;7.492;2023-04-24T10:02:49;10.50;99.90
74934;DHT22;63499;53.232;7.492;2023-04-24T10:05:16;10.50;99.90
74934;DHT22;63499;53.232;7.492;2023-04-24T10:07:43;10.50;99.90
74934;DHT22;63499;53.232;7.492;2023-04-24T10:10:09;10.40;99.90
74934;DHT22;63499;53.232;7.492;2023-04-24T10:12:35;10.40;99.90
74934;DHT22;63499;53.232;7.492;2023-04-24T10:15:01;10.30;99.90
74934;DHT22;63499;53.232;7.492;2023-04-24T10:17:29;10.40;99.90
74934;DHT22;63499;53.232;7.492;2023-04-24T10:19:55;10.40;99.90
74934;DHT22;63499;53.232;7.492;2023-04-24T10:22:21;10.50;99.90
74934;DHT22;63499;53.232;7.492;2023-04-24T10:24:47;10.50;99.90
74934;DHT22;63499;53.232;7.492;2023-04-24T10:27:15;10.50;99.90
74934;DHT22;63499;53.232;7.492;2023-04-24T10:29:42;10.50;99.90
74934;DHT22;63499;53.232;7.492;2023-04-24T10:32:09;10.40;99.90
74934;DHT22;63499;53.232;7.492;2023-04-24T10:34:37;10.30;99.90
74934;DHT22;63499;53.232;7.492;2023-04-24T10:37:02;10.30;99.90
74934;DHT22;63499;53.232;7.492;2023-04-24T10:39:29;10.20;99.90
74934;DHT22;63499;53.232;7.492;2023-04-24T10:41:56;10.10;99.90
74934;DHT22;63499;53.232;7.492;2023-04-24T10:44:23;10.10;99.90
74934;DHT22;63499;53.232;7.492;2023-04-24T10:46:52;10.00;99.90
74934;DHT22;63499;53.232;7.492;2023-04-24T10:49:27;10.00;99.90
74934;DHT22;63499;53.232;7.492;2023-04-24T10:51:53;9.90;99.90
74934;DHT22;63499;53.232;7.492;2023-04-24T10:54:27;9.90;99.90
74934;DHT22;63499;53.232;7.492;2023-04-24T10:56:55;10.00;99.90
74934;DHT22;63499;53.232;7.492;2023-04-24T10:59:39;9.90;99.90
74934;DHT22;63499;53.232;7.492;2023-04-24T11:02:06;9.90;99.90
74934;DHT22;63499;53.232;7.492;2023-04-24T11:04:33;9.90;99.90
74934;DHT22;63499;53.232;7.492;2023-04-24T11:07:00;9.90;99.90
74934;DHT22;63499;53.232;7.492;2023-04-24T11:09:28;9.90;99.90
74934;DHT22;63499;53.232;7.492;2023-04-24T11:12:05;9.90;99.90
74934;DHT22;63499;53.232;7.492;2023-04-24T11:17:29;9.80;99.90
74934;DHT22;63499;53.232;7.492;2023-04-24T11:20:00;9.80;99.90
74934;DHT22;63499;53.232;7.492;2023-04-24T11:22:26;9.80;99.90
74934;DHT22;63499;53.232;7.492;2023-04-24T11:24:55;9.60;99.90
74934;DHT22;63499;53.232;7.492;2023-04-24T11:27:29;9.60;99.90
74934;DHT22;63499;53.232;7.492;2023-04-24T11:34:52;9.60;99.90
74934;DHT22;63499;53.232;7.492;2023-04-24T11:37:18;9.60;99.90
74934;DHT22;63499;53.232;7.492;2023-04-24T11:39:44;9.50;99.90
74934;DHT22;63499;53.232;7.492;2023-04-24T11:42:10;9.40;99.90
74934;DHT22;63499;53.232;7.492;2023-04-24T11:44:36;9.40;99.90
